This is the latest recevied weather packets stored in our database for station/object 9W2IJB-3. If no packets are shown the sender has not sent any weather packets the latest 1 day(s).
| Time | Temp. | Humidity | Pressure | Rain* | Wind** | Luminosity | Snow |
|---|---|---|---|---|---|---|---|
| 1777889888 | 27.22° C | 73% | 1019.9 hPa | - | - | - | - |
| 1777888688 | 27.22° C | 73% | 1019.9 hPa | - | - | - | - |
| 1777887488 | 27.22° C | 74% | 1019.7 hPa | - | - | - | - |
| 1777886287 | 27.22° C | 73% | 1019.2 hPa | - | - | - | - |
| 1777885087 | 27.22° C | 73% | 1019.4 hPa | - | - | - | - |
| 1777883887 | 27.78° C | 73% | 1019.5 hPa | - | - | - | - |
| 1777882687 | 27.78° C | 71% | 1019.6 hPa | - | - | - | - |
| 1777881487 | 27.78° C | 70% | 1019.8 hPa | - | - | - | - |
| 1777880319 | 27.78° C | 69% | 1019.6 hPa | - | - | - | - |
| 1777880287 | 27.78° C | 69% | 1019.6 hPa | - | - | - | - |
| 1777879087 | 28.89° C | 69% | 1020.2 hPa | - | - | - | - |
| 1777877887 | 30.56° C | 63% | 1020.7 hPa | - | - | - | - |
| 1777876719 | 31.11° C | 61% | 1021 hPa | - | - | - | - |
| 1777876687 | 31.11° C | 61% | 1021 hPa | - | - | - | - |
| 1777875487 | 31.11° C | 62% | 1021.6 hPa | - | - | - | - |
| 1777874287 | 31.11° C | 64% | 1021.7 hPa | - | - | - | - |
| 1777873087 | 30.56° C | 64% | 1022 hPa | - | - | - | - |
| 1777870688 | 30° C | 65% | 1022.6 hPa | - | - | - | - |
| 1777869487 | 30.56° C | 64% | 1022.8 hPa | - | - | - | - |
| 1777868287 | 30° C | 65% | 1023.2 hPa | - | - | - | - |
| 1777867087 | 29.44° C | 68% | 1023.2 hPa | - | - | - | - |
| 1777865887 | 28.33° C | 70% | 1023.3 hPa | - | - | - | - |
| 1777864723 | 27.78° C | 70% | 1023.4 hPa | - | - | - | - |
| 1777864687 | 27.78° C | 70% | 1023.4 hPa | - | - | - | - |
| 1777863487 | 27.22° C | 69% | 1023.4 hPa | - | - | - | - |
* Rain since midnight (hover to see other rain measurements)
** Current wind speed in m/s (hover to see current wind gust speed)